Beech Mountain, North Carolina
Current Conditions -  °F | °C
As of 8:35 AM on Saturday 20 Dec 2014 (Local Time) from KTNB Reporting Station
Light Snow Light Snow  
Wind Chill: 32°   Ceiling: 3000
Heat Index: 32°   Visibility: 10mi
Dew Point: 26°   Wind: 0mph
Humidity: 80%   Direction: NA
Pressure: 30.16"   Gusts: NA
Location:  36.1797°N, 81.8424°W
Report Text: KTNB 201335Z AUTO 00000KT 10SM -SN SCT016 BKN030 BKN070 00/M03 A3016 RMK AO2 T00001031
Loading
Personal Weather Stations






























Interactive Weather Map New forecast layout! Learn more

10-Day Weather Forecast

Advertisements
Track Severe Weather on mobile